createdAt,value
2023-04-19T00:01:20.319Z,99494.81
2023-04-19T00:03:47.843Z,99493.28
2023-04-19T00:06:15.825Z,99490.94
2023-04-19T00:08:43.968Z,99495.72
2023-04-19T00:11:11.303Z,99493.88
2023-04-19T00:13:38.718Z,99493.88
2023-04-19T00:16:06.275Z,99498.19
2023-04-19T00:18:33.798Z,99501.91
2023-04-19T00:21:02.276Z,99512.03
2023-04-19T00:23:29.504Z,99507.81
2023-04-19T00:25:56.863Z,99505.50
2023-04-19T00:28:25.733Z,99500.94
2023-04-19T00:30:53.235Z,99496.94
2023-04-19T00:33:20.363Z,99498.53
2023-04-19T00:35:49.067Z,99490.03
2023-04-19T00:38:16.174Z,99507.63
2023-04-19T00:40:46.381Z,99508.91
2023-04-19T00:43:20.660Z,99508.53
2023-04-19T00:45:48.125Z,99511.53
2023-04-19T00:48:15.900Z,99505.88
2023-04-19T00:50:43.882Z,99502.84
2023-04-19T00:53:11.292Z,99499.91
2023-04-19T00:55:39.118Z,99497.47
2023-04-19T00:58:07.338Z,99503.25
2023-04-19T01:00:35.613Z,99509.56
2023-04-19T01:03:03.547Z,99522.41
2023-04-19T01:05:31.117Z,99513.59
2023-04-19T01:07:58.313Z,99510.91
2023-04-19T01:10:25.723Z,99512.88
2023-04-19T01:12:53.044Z,99520.13
2023-04-19T01:15:20.391Z,99513.91
2023-04-19T01:17:49.772Z,99508.78
2023-04-19T01:20:17.022Z,99515.31
2023-04-19T01:22:44.700Z,99519.31
2023-04-19T01:25:12.511Z,99502.78
2023-04-19T01:27:44.411Z,99514.75
2023-04-19T01:30:11.938Z,99502.38
2023-04-19T01:32:39.374Z,99507.75
2023-04-19T01:35:07.144Z,99519.19
2023-04-19T01:37:37.768Z,99513.44
2023-04-19T01:40:05.690Z,99511.81
2023-04-19T01:42:32.979Z,99511.06
2023-04-19T01:45:01.088Z,99513.75
2023-04-19T01:47:28.599Z,99516.28
2023-04-19T01:49:56.035Z,99508.34
2023-04-19T01:52:23.478Z,99508.47
2023-04-19T01:54:50.592Z,99523.59
2023-04-19T01:57:18.713Z,99524.13
2023-04-19T01:59:47.597Z,99517.56
2023-04-19T02:02:14.822Z,99523.31
2023-04-19T02:04:42.528Z,99516.34
2023-04-19T02:07:09.578Z,99515.06
2023-04-19T02:09:37.737Z,99511.22
2023-04-19T02:12:05.876Z,99517.81
2023-04-19T02:14:33.496Z,99523.63
2023-04-19T02:17:01.099Z,99519.84
2023-04-19T02:19:28.112Z,99528.69
2023-04-19T02:21:57.490Z,99523.75
2023-04-19T02:24:24.998Z,99519.19
2023-04-19T02:26:52.316Z,99517.44
2023-04-19T02:29:19.758Z,99520.19
2023-04-19T02:31:47.058Z,99522.78
2023-04-19T02:34:14.382Z,99533.09
2023-04-19T02:36:41.647Z,99530.88
2023-04-19T02:39:08.677Z,99531.78
2023-04-19T02:41:38.965Z,99531.03
2023-04-19T02:44:06.192Z,99534.28
2023-04-19T02:46:34.488Z,99542.00
2023-04-19T02:49:02.710Z,99532.94
2023-04-19T02:51:30.789Z,99538.06
2023-04-19T02:53:58.370Z,99534.81
2023-04-19T02:56:26.124Z,99526.81
2023-04-19T02:58:54.780Z,99534.53
2023-04-19T03:01:22.137Z,99536.44
2023-04-19T03:03:49.319Z,99533.94
2023-04-19T03:06:17.299Z,99528.78
2023-04-19T03:08:44.824Z,99542.16
2023-04-19T03:11:12.536Z,99532.28
2023-04-19T03:13:40.522Z,99542.63
2023-04-19T03:16:08.157Z,99549.41
2023-04-19T03:18:36.915Z,99546.72
2023-04-19T03:21:05.277Z,99541.13
2023-04-19T03:23:41.078Z,99555.50
2023-04-19T03:26:09.444Z,99550.75
2023-04-19T03:28:41.737Z,99551.59
2023-04-19T03:31:14.956Z,99564.22
2023-04-19T03:33:42.232Z,99564.13
2023-04-19T03:36:10.952Z,99562.44
2023-04-19T03:38:40.537Z,99567.22
2023-04-19T03:41:23.388Z,99566.63
2023-04-19T03:44:00.260Z,99563.59
2023-04-19T03:46:31.252Z,99565.81
2023-04-19T03:48:59.740Z,99566.72
2023-04-19T03:51:28.313Z,99568.19
2023-04-19T03:53:55.619Z,99571.53
2023-04-19T03:56:23.098Z,99570.88
2023-04-19T03:58:52.020Z,99572.38
2023-04-19T04:01:22.545Z,99561.44
2023-04-19T04:03:50.939Z,99566.03
2023-04-19T04:06:19.355Z,99564.00
2023-04-19T04:08:47.687Z,99560.63
2023-04-19T04:11:15.220Z,99565.59
2023-04-19T04:13:43.514Z,99568.44
2023-04-19T04:16:15.966Z,99567.91
2023-04-19T04:18:43.523Z,99559.84
2023-04-19T04:21:14.307Z,99557.53
2023-04-19T04:23:45.192Z,99559.25
2023-04-19T04:26:19.819Z,99569.81
2023-04-19T04:29:06.081Z,99557.38
2023-04-19T04:31:36.230Z,99578.22
2023-04-19T04:34:03.930Z,99567.84
2023-04-19T04:36:34.005Z,99570.88
2023-04-19T04:39:01.911Z,99568.31
2023-04-19T04:41:31.188Z,99567.75
2023-04-19T04:44:22.956Z,99568.06
2023-04-19T04:46:48.372Z,99572.34
2023-04-19T04:49:21.476Z,99573.31
2023-04-19T04:51:48.974Z,99575.25
2023-04-19T04:54:17.038Z,99573.56
2023-04-19T04:56:46.030Z,99577.00
2023-04-19T04:59:14.139Z,99574.84
2023-04-19T05:01:44.388Z,99577.50
2023-04-19T05:04:12.847Z,99573.34
2023-04-19T05:06:44.490Z,99564.88
2023-04-19T05:09:12.836Z,99574.28
2023-04-19T05:11:40.131Z,99570.59
2023-04-19T05:14:07.329Z,99571.09
2023-04-19T05:16:34.955Z,99579.34
2023-04-19T05:19:03.463Z,99579.97
2023-04-19T05:21:35.162Z,99579.03
2023-04-19T05:24:05.488Z,99579.03
2023-04-19T05:26:35.099Z,99571.72
2023-04-19T05:29:04.044Z,99573.81
2023-04-19T05:32:03.711Z,99570.97
2023-04-19T05:34:36.534Z,99568.38
2023-04-19T05:37:05.176Z,99567.56
2023-04-19T05:39:32.538Z,99574.91
2023-04-19T05:42:00.249Z,99568.94
2023-04-19T05:44:27.667Z,99575.00
2023-04-19T05:46:55.045Z,99576.84
2023-04-19T05:49:43.127Z,99580.38
2023-04-19T05:52:27.169Z,99578.53
2023-04-19T05:54:56.781Z,99578.03
2023-04-19T05:57:24.756Z,99568.09
2023-04-19T05:59:52.204Z,99566.69
2023-04-19T06:02:23.586Z,99560.28
2023-04-19T06:04:51.174Z,99570.94
2023-04-19T06:07:31.026Z,99567.75
2023-04-19T06:10:00.036Z,99569.28
2023-04-19T06:12:27.656Z,99568.44
2023-04-19T06:14:55.322Z,99562.22
2023-04-19T06:17:24.455Z,99562.25
2023-04-19T06:19:52.472Z,99557.75
2023-04-19T06:22:20.156Z,99559.56
2023-04-19T06:24:47.630Z,99566.31
2023-04-19T06:27:16.224Z,99562.16
2023-04-19T06:29:43.559Z,99547.75
2023-04-19T06:32:11.288Z,99567.66
2023-04-19T06:34:38.293Z,99563.25
2023-04-19T06:37:05.291Z,99552.66
2023-04-19T06:39:32.665Z,99556.19
2023-04-19T06:42:00.062Z,99550.63
2023-04-19T06:44:28.810Z,99555.72
2023-04-19T06:46:55.962Z,99560.75
2023-04-19T06:49:23.414Z,99553.63
2023-04-19T06:51:50.533Z,99561.28
2023-04-19T06:54:18.472Z,99552.53
2023-04-19T06:56:47.834Z,99558.72
2023-04-19T06:59:19.215Z,99542.50
2023-04-19T07:01:47.332Z,99549.56
2023-04-19T07:04:15.687Z,99546.47
2023-04-19T07:06:43.352Z,99547.00
2023-04-19T07:09:10.933Z,99543.66
2023-04-19T07:11:38.351Z,99543.19
2023-04-19T07:14:05.730Z,99535.72
2023-04-19T07:16:33.559Z,99544.78
2023-04-19T07:19:00.880Z,99541.78
2023-04-19T07:21:30.473Z,99538.66
2023-04-19T07:23:57.886Z,99546.91
2023-04-19T07:26:25.392Z,99535.91
2023-04-19T07:28:52.651Z,99543.59
2023-04-19T07:31:21.005Z,99542.16
2023-04-19T07:33:48.511Z,99539.66
2023-04-19T07:36:15.837Z,99545.47
2023-04-19T07:38:43.304Z,99535.78
2023-04-19T07:41:10.462Z,99539.03
2023-04-19T07:43:39.172Z,99532.97
2023-04-19T07:46:11.180Z,99524.41
2023-04-19T07:48:38.658Z,99527.25
2023-04-19T07:51:12.283Z,99522.66
2023-04-19T07:53:40.503Z,99519.75
2023-04-19T07:56:08.179Z,99513.31
2023-04-19T07:58:39.256Z,99521.03
2023-04-19T08:01:06.920Z,99517.06
2023-04-19T08:03:34.398Z,99508.56
2023-04-19T08:06:02.792Z,99516.06
2023-04-19T08:08:30.928Z,99509.50
2023-04-19T08:10:59.605Z,99506.00
2023-04-19T08:13:29.677Z,99506.34
2023-04-19T08:18:27.535Z,99502.53
2023-04-19T08:20:56.134Z,99503.88
2023-04-19T08:23:29.491Z,99501.38
2023-04-19T08:26:02.186Z,99496.66
2023-04-19T08:28:29.796Z,99496.25
2023-04-19T08:30:58.500Z,99481.72
2023-04-19T08:33:25.640Z,99488.75
2023-04-19T08:35:53.102Z,99489.75
2023-04-19T08:38:20.289Z,99489.91
2023-04-19T08:40:53.309Z,99498.09
2023-04-19T08:43:20.517Z,99485.50
2023-04-19T08:45:51.280Z,99487.63
2023-04-19T08:48:18.445Z,99471.25
2023-04-19T08:51:03.576Z,99479.09
2023-04-19T08:53:34.175Z,99478.94
2023-04-19T09:01:07.410Z,99460.81
2023-04-19T09:03:44.285Z,99454.28
2023-04-19T09:06:15.387Z,99467.00
2023-04-19T09:08:42.648Z,99456.63
2023-04-19T09:11:09.720Z,99445.94
2023-04-19T09:13:38.796Z,99451.97
2023-04-19T09:16:08.084Z,99454.97
2023-04-19T09:18:45.582Z,99451.47
2023-04-19T09:21:30.797Z,99446.94
2023-04-19T09:23:58.094Z,99456.97
2023-04-19T09:26:29.288Z,99448.16
2023-04-19T09:29:04.119Z,99450.22
2023-04-19T09:31:50.993Z,99451.94
2023-04-19T09:34:19.171Z,99445.59
2023-04-19T09:36:47.064Z,99446.75
2023-04-19T09:39:15.191Z,99453.09
2023-04-19T09:41:55.114Z,99437.03
2023-04-19T09:46:53.568Z,99440.06
2023-04-19T09:49:37.509Z,99443.75
2023-04-19T09:52:13.636Z,99439.88
2023-04-19T09:54:41.244Z,99437.84
2023-04-19T09:57:08.244Z,99437.34
2023-04-19T09:59:35.859Z,99436.31
2023-04-19T10:02:03.378Z,99442.81
2023-04-19T10:04:44.159Z,99425.59
2023-04-19T10:07:30.134Z,99428.75
2023-04-19T10:10:11.847Z,99421.09
2023-04-19T10:13:07.567Z,99424.78
2023-04-19T10:18:08.238Z,99425.69
2023-04-19T10:21:01.975Z,99433.69
2023-04-19T10:23:29.409Z,99424.00
2023-04-19T10:25:57.417Z,99426.34
2023-04-19T10:28:25.312Z,99413.78
2023-04-19T10:30:54.240Z,99417.47
2023-04-19T10:33:26.107Z,99411.28
2023-04-19T10:35:56.533Z,99404.59
2023-04-19T10:38:37.049Z,99415.13
2023-04-19T10:41:05.144Z,99416.28
2023-04-19T10:43:36.623Z,99411.53
2023-04-19T10:46:17.332Z,99411.88
2023-04-19T10:48:54.948Z,99418.91
2023-04-19T10:51:44.321Z,99411.09
2023-04-19T10:54:31.576Z,99419.16
2023-04-19T10:57:04.495Z,99418.16
2023-04-19T10:59:36.377Z,99422.16
2023-04-19T11:02:04.994Z,99408.78
2023-04-19T11:04:32.793Z,99412.28
2023-04-19T11:07:07.311Z,99407.41
2023-04-19T11:09:41.365Z,99412.88
2023-04-19T11:12:14.366Z,99409.88
2023-04-19T11:14:43.348Z,99407.03
2023-04-19T11:17:30.743Z,99414.38
2023-04-19T11:20:02.235Z,99415.34
2023-04-19T11:22:39.319Z,99417.00
2023-04-19T11:25:22.291Z,99409.09
2023-04-19T11:27:52.055Z,99414.94
2023-04-19T11:30:22.389Z,99404.88
2023-04-19T11:32:53.663Z,99417.66
2023-04-19T11:35:21.782Z,99408.28
2023-04-19T11:37:49.889Z,99412.72
2023-04-19T11:40:18.386Z,99420.63
2023-04-19T11:42:45.677Z,99410.31
2023-04-19T11:45:25.911Z,99411.72
2023-04-19T11:47:56.691Z,99429.09
2023-04-19T11:50:38.393Z,99420.88
2023-04-19T11:53:19.206Z,99415.47
2023-04-19T11:55:57.869Z,99410.75
2023-04-19T11:58:44.717Z,99415.53
2023-04-19T12:01:13.444Z,99418.81
2023-04-19T12:03:44.471Z,99419.44
2023-04-19T12:06:14.821Z,99422.84
2023-04-19T12:08:50.036Z,99405.19
2023-04-19T12:11:24.088Z,99425.66
2023-04-19T12:14:10.041Z,99420.38
2023-04-19T12:16:37.359Z,99418.84
2023-04-19T12:19:18.859Z,99421.16
2023-04-19T12:21:46.492Z,99409.97
2023-04-19T12:24:15.863Z,99419.25
2023-04-19T12:26:56.696Z,99419.66
2023-04-19T12:29:24.579Z,99427.44
2023-04-19T12:31:51.960Z,99405.47
2023-04-19T12:34:19.413Z,99421.22
2023-04-19T12:36:46.822Z,99419.66
2023-04-19T12:39:14.755Z,99421.38
2023-04-19T12:41:42.217Z,99420.13
2023-04-19T12:44:09.258Z,99425.19
2023-04-19T12:46:36.748Z,99424.09
2023-04-19T12:49:04.251Z,99428.88
2023-04-19T12:51:32.399Z,99444.00
2023-04-19T12:54:00.186Z,99430.72
2023-04-19T12:56:27.931Z,99435.50
2023-04-19T12:58:54.966Z,99438.06
2023-04-19T13:01:23.514Z,99438.06
2023-04-19T13:03:51.270Z,99440.84
2023-04-19T13:06:18.942Z,99451.75
2023-04-19T13:08:47.787Z,99449.69
2023-04-19T13:11:15.736Z,99438.78
2023-04-19T13:13:43.315Z,99434.47
2023-04-19T13:16:10.735Z,99452.34
2023-04-19T13:18:38.110Z,99446.38
2023-04-19T13:21:08.084Z,99451.53
2023-04-19T13:23:35.950Z,99450.00
2023-04-19T13:26:03.718Z,99459.91
2023-04-19T13:28:30.878Z,99464.53
2023-04-19T13:30:58.140Z,99463.56
2023-04-19T13:33:26.642Z,99466.22
2023-04-19T13:35:54.412Z,99472.50
2023-04-19T13:38:22.736Z,99467.78
2023-04-19T13:40:49.882Z,99483.03
2023-04-19T13:43:17.602Z,99493.81
2023-04-19T13:45:45.073Z,99485.53
2023-04-19T13:48:12.167Z,99482.59
2023-04-19T13:50:39.597Z,99492.38
2023-04-19T13:53:07.157Z,99482.75
2023-04-19T13:55:34.579Z,99495.34
2023-04-19T13:58:02.218Z,99495.34
2023-04-19T14:00:29.305Z,99496.47
2023-04-19T14:02:57.001Z,99497.28
2023-04-19T14:05:24.615Z,99490.72
2023-04-19T14:07:52.568Z,99501.03
2023-04-19T14:10:19.744Z,99498.66
2023-04-19T14:12:47.782Z,99503.41
2023-04-19T14:15:15.199Z,99509.28
2023-04-19T14:17:42.759Z,99511.78
2023-04-19T14:20:13.687Z,99517.94
2023-04-19T14:22:41.115Z,99512.44
2023-04-19T14:25:08.592Z,99507.50
2023-04-19T14:27:36.067Z,99522.72
2023-04-19T14:30:03.651Z,99519.91
2023-04-19T14:34:59.228Z,99523.22
2023-04-19T14:37:26.639Z,99523.09
2023-04-19T14:39:53.726Z,99529.25
2023-04-19T14:42:22.641Z,99521.84
2023-04-19T14:44:51.811Z,99524.34
2023-04-19T14:47:19.239Z,99518.25
2023-04-19T14:49:46.702Z,99518.06
2023-04-19T14:52:14.100Z,99536.13
2023-04-19T14:54:42.020Z,99521.91
2023-04-19T14:57:09.500Z,99525.09
2023-04-19T14:59:37.149Z,99532.94
2023-04-19T15:02:04.471Z,99539.41
2023-04-19T15:04:37.256Z,99533.97
2023-04-19T15:07:07.375Z,99534.28
2023-04-19T15:09:34.810Z,99548.13
2023-04-19T15:12:02.662Z,99550.63
2023-04-19T15:14:29.937Z,99554.16
2023-04-19T15:16:56.955Z,99556.97
2023-04-19T15:19:24.505Z,99557.66
2023-04-19T15:21:51.829Z,99554.31
2023-04-19T15:24:19.249Z,99549.00
2023-04-19T15:26:46.930Z,99554.44
2023-04-19T15:29:14.657Z,99551.66
2023-04-19T15:31:42.251Z,99558.09
2023-04-19T15:34:09.439Z,99560.75
2023-04-19T15:36:40.612Z,99561.72
2023-04-19T15:39:08.156Z,99563.81
2023-04-19T15:41:35.533Z,99561.16
2023-04-19T15:44:02.886Z,99560.47
2023-04-19T15:46:30.295Z,99566.75
2023-04-19T15:48:58.052Z,99567.00
2023-04-19T15:51:25.350Z,99577.50
2023-04-19T15:53:52.718Z,99586.88
2023-04-19T15:56:20.665Z,99587.44
2023-04-19T15:58:47.980Z,99584.66
2023-04-19T16:01:16.397Z,99591.22
2023-04-19T16:03:46.102Z,99579.50
2023-04-19T16:06:13.485Z,99580.91
2023-04-19T16:08:41.169Z,99581.88
2023-04-19T16:11:08.367Z,99576.16
2023-04-19T16:13:35.468Z,99571.66
2023-04-19T16:16:03.252Z,99578.59
2023-04-19T16:18:30.693Z,99571.59
2023-04-19T16:20:58.295Z,99583.16
2023-04-19T16:23:25.744Z,99584.66
2023-04-19T16:25:53.789Z,99585.19
2023-04-19T16:28:22.659Z,99591.19
2023-04-19T16:30:49.843Z,99597.88
2023-04-19T16:33:17.479Z,99591.31
2023-04-19T16:35:44.907Z,99599.13
2023-04-19T16:38:12.297Z,99588.31
2023-04-19T16:40:40.034Z,99604.66
2023-04-19T16:43:07.150Z,99602.13
2023-04-19T16:45:34.910Z,99610.09
2023-04-19T16:48:02.402Z,99619.06
2023-04-19T16:50:29.847Z,99621.91
2023-04-19T16:52:57.023Z,99619.81
2023-04-19T16:55:24.281Z,99641.25
2023-04-19T16:57:53.705Z,99632.34
2023-04-19T17:00:21.788Z,99628.34
2023-04-19T17:02:49.427Z,99635.69
2023-04-19T17:05:16.619Z,99630.28
2023-04-19T17:07:43.864Z,99639.50
2023-04-19T17:10:11.446Z,99645.94
2023-04-19T17:12:39.178Z,99646.44
2023-04-19T17:15:06.468Z,99651.59
2023-04-19T17:17:33.610Z,99656.47
2023-04-19T17:20:01.302Z,99668.88
2023-04-19T17:22:28.541Z,99663.63
2023-04-19T17:24:57.183Z,99663.56
2023-04-19T17:27:25.026Z,99677.53
2023-04-19T17:29:52.466Z,99674.66
2023-04-19T17:32:19.490Z,99677.00
2023-04-19T17:34:46.950Z,99682.00
2023-04-19T17:37:14.473Z,99687.81
2023-04-19T17:39:41.594Z,99686.38
2023-04-19T17:42:09.124Z,99694.03
2023-04-19T17:44:36.353Z,99692.56
2023-04-19T17:47:03.734Z,99698.97
2023-04-19T17:49:30.869Z,99699.25
2023-04-19T17:51:58.455Z,99705.38
2023-04-19T17:54:25.686Z,99694.34
2023-04-19T17:56:53.053Z,99699.25
2023-04-19T17:59:20.248Z,99705.53
2023-04-19T18:01:47.654Z,99709.97
2023-04-19T18:04:17.627Z,99696.13
2023-04-19T18:06:48.701Z,99705.91
2023-04-19T18:09:19.166Z,99704.72
2023-04-19T18:11:47.472Z,99704.00
2023-04-19T18:14:15.068Z,99708.72
2023-04-19T18:16:42.079Z,99707.03
2023-04-19T18:19:09.850Z,99705.47
2023-04-19T18:21:37.524Z,99701.88
2023-04-19T18:24:05.430Z,99705.47
2023-04-19T18:26:40.218Z,99710.66
2023-04-19T18:29:07.647Z,99700.53
2023-04-19T18:31:34.696Z,99704.16
2023-04-19T18:34:02.565Z,99707.06
2023-04-19T18:36:30.005Z,99705.50
2023-04-19T18:38:57.205Z,99705.63
2023-04-19T18:41:24.719Z,99709.38
2023-04-19T18:44:19.212Z,99712.38
2023-04-19T18:46:39.282Z,99716.97
2023-04-19T18:49:06.884Z,99717.34
2023-04-19T18:51:34.251Z,99717.72
2023-04-19T18:54:01.652Z,99728.56
2023-04-19T18:57:03.760Z,99717.38
2023-04-19T18:59:16.810Z,99719.44
2023-04-19T19:01:45.405Z,99713.28
2023-04-19T19:06:51.623Z,99725.22
2023-04-19T19:09:22.684Z,99721.84
2023-04-19T19:11:56.744Z,99712.19
2023-04-19T19:14:24.773Z,99720.91
2023-04-19T19:16:53.099Z,99716.44
2023-04-19T19:19:22.431Z,99720.53
2023-04-19T19:21:52.196Z,99727.38
2023-04-19T19:24:19.550Z,99722.28
2023-04-19T19:26:47.514Z,99730.47
2023-04-19T19:29:16.544Z,99730.72
2023-04-19T19:31:44.316Z,99718.19
2023-04-19T19:34:24.173Z,99720.19
2023-04-19T19:36:54.641Z,99728.50
2023-04-19T19:39:22.131Z,99728.13
2023-04-19T19:42:05.215Z,99733.16
2023-04-19T19:44:33.697Z,99735.44
2023-04-19T19:47:01.148Z,99736.91
2023-04-19T19:49:28.438Z,99727.72
2023-04-19T19:51:59.103Z,99726.47
2023-04-19T19:54:27.296Z,99732.50
2023-04-19T19:57:21.771Z,99741.03
2023-04-19T19:59:50.387Z,99733.69
2023-04-19T20:02:22.490Z,99737.75
2023-04-19T20:04:50.781Z,99740.88
2023-04-19T20:07:37.383Z,99741.34
2023-04-19T20:10:08.444Z,99735.66
2023-04-19T20:12:35.874Z,99737.06
2023-04-19T20:15:03.556Z,99739.31
2023-04-19T20:17:31.412Z,99744.28
2023-04-19T20:20:00.088Z,99738.84
2023-04-19T20:22:27.232Z,99738.69
2023-04-19T20:24:54.528Z,99743.03
2023-04-19T20:27:21.933Z,99746.28
2023-04-19T20:29:49.035Z,99744.31
2023-04-19T20:32:16.533Z,99751.09
2023-04-19T20:34:45.978Z,99748.28
2023-04-19T20:37:13.386Z,99742.97
2023-04-19T20:39:40.855Z,99753.06
2023-04-19T20:42:08.176Z,99756.31
2023-04-19T20:44:36.159Z,99747.38
2023-04-19T20:47:03.502Z,99753.38
2023-04-19T20:49:30.839Z,99750.50
2023-04-19T20:51:58.068Z,99762.41
2023-04-19T20:54:25.885Z,99758.63
2023-04-19T20:56:53.727Z,99757.78
2023-04-19T20:59:21.015Z,99756.53
2023-04-19T21:01:48.225Z,99748.22
2023-04-19T21:04:15.924Z,99752.16
2023-04-19T21:06:43.216Z,99753.81
2023-04-19T21:09:10.898Z,99749.91
2023-04-19T21:11:38.196Z,99753.28
2023-04-19T21:14:05.602Z,99745.44
2023-04-19T21:16:32.882Z,99756.06
2023-04-19T21:19:00.065Z,99757.88
2023-04-19T21:21:27.740Z,99753.28
2023-04-19T21:23:55.143Z,99756.22
2023-04-19T21:26:22.141Z,99756.75
2023-04-19T21:28:49.557Z,99749.06
2023-04-19T21:31:16.910Z,99761.63
2023-04-19T21:33:44.338Z,99750.41
2023-04-19T21:36:11.370Z,99757.78
2023-04-19T21:38:38.443Z,99758.06
2023-04-19T21:41:07.540Z,99755.53
2023-04-19T21:43:35.448Z,99754.81
2023-04-19T21:46:04.957Z,99766.28
2023-04-19T21:48:32.729Z,99762.94
2023-04-19T21:51:01.158Z,99763.78
2023-04-19T21:53:28.592Z,99760.13
2023-04-19T21:55:56.011Z,99758.13
2023-04-19T21:58:23.130Z,99761.75
2023-04-19T22:00:51.298Z,99755.47
2023-04-19T22:03:18.548Z,99754.63
2023-04-19T22:05:46.703Z,99761.63
2023-04-19T22:08:14.143Z,99766.91
2023-04-19T22:10:42.649Z,99767.91
2023-04-19T22:13:09.695Z,99762.84
2023-04-19T22:15:37.574Z,99766.22
2023-04-19T22:18:05.127Z,99759.09
2023-04-19T22:20:33.724Z,99759.94
2023-04-19T22:23:01.129Z,99760.91
2023-04-19T22:25:28.449Z,99766.34
2023-04-19T22:27:55.712Z,99773.75
2023-04-19T22:30:23.031Z,99769.97
2023-04-19T22:32:50.850Z,99765.19
2023-04-19T22:35:19.084Z,99773.28
2023-04-19T22:37:47.529Z,99768.34
2023-04-19T22:40:14.584Z,99768.59
2023-04-19T22:42:42.154Z,99768.75
2023-04-19T22:45:10.101Z,99765.25
2023-04-19T22:47:37.964Z,99765.03
2023-04-19T22:50:05.533Z,99768.22
2023-04-19T22:52:34.635Z,99766.53
2023-04-19T22:55:01.698Z,99764.13
2023-04-19T22:57:28.981Z,99761.25
2023-04-19T22:59:56.146Z,99757.75
2023-04-19T23:02:23.511Z,99768.25
2023-04-19T23:04:50.634Z,99767.53
2023-04-19T23:07:20.713Z,99765.59
2023-04-19T23:09:48.024Z,99764.50
2023-04-19T23:12:15.469Z,99767.75
2023-04-19T23:14:42.897Z,99766.91
2023-04-19T23:17:10.558Z,99767.88
2023-04-19T23:19:38.576Z,99770.41
2023-04-19T23:22:06.096Z,99771.00
2023-04-19T23:24:33.207Z,99774.47
2023-04-19T23:27:01.430Z,99775.84
2023-04-19T23:29:29.713Z,99774.16
2023-04-19T23:31:57.847Z,99772.81
2023-04-19T23:34:25.562Z,99771.69
2023-04-19T23:36:52.597Z,99770.34
2023-04-19T23:39:20.309Z,99775.50
2023-04-19T23:41:47.807Z,99776.00
2023-04-19T23:44:15.579Z,99778.38
2023-04-19T23:46:42.654Z,99785.59
2023-04-19T23:49:10.004Z,99795.56
2023-04-19T23:51:37.296Z,99786.81
2023-04-19T23:54:04.933Z,99796.66
2023-04-19T23:56:32.213Z,99792.75
2023-04-19T23:58:59.854Z,99780.78
